Time;durP1;ratioP1;P1;durP2;ratioP2;P2;SDS_P1;SDS_P2;PMS_P1;PMS_P2;Temp;Humidity;BMP_temperature;BMP_pressure;BME280_temperature;BME280_humidity;BME280_pressure;Samples;Min_cycle;Max_cycle;Signal;HPM_P1;HPM_P2
2023/08/12 00:01:25;;;;;;;13.63;12.15;;;22.50;99.90;;;;;;5031032;28;20217;-83
2023/08/12 00:03:52;;;;;;;13.00;10.82;;;22.50;99.90;;;;;;5033080;28;20208;-82
2023/08/12 00:06:20;;;;;;;11.60;10.45;;;22.40;99.90;;;;;;5033906;28;20199;-82
2023/08/12 00:08:47;;;;;;;13.98;11.68;;;22.40;99.90;;;;;;5036647;28;20210;-83
2023/08/12 00:11:15;;;;;;;15.18;13.20;;;22.40;99.90;;;;;;5036585;28;20195;-85
2023/08/12 00:13:42;;;;;;;15.00;13.45;;;22.30;99.90;;;;;;5052636;28;20195;-82
2023/08/12 00:16:11;;;;;;;15.15;13.48;;;22.10;99.90;;;;;;5034060;28;20195;-83
2023/08/12 00:18:39;;;;;;;13.18;11.88;;;22.20;99.90;;;;;;5041263;28;20226;-83
2023/08/12 00:21:09;;;;;;;15.93;12.88;;;22.30;99.90;;;;;;5037503;28;20222;-82
2023/08/12 00:23:40;;;;;;;15.73;13.80;;;22.20;99.90;;;;;;5036624;28;20692;-82
2023/08/12 00:26:08;;;;;;;14.93;13.15;;;22.30;99.90;;;;;;5022558;28;20195;-83
2023/08/12 00:28:36;;;;;;;16.83;13.27;;;22.40;99.90;;;;;;5041758;28;20191;-83
2023/08/12 00:31:04;;;;;;;16.20;13.48;;;22.30;99.90;;;;;;5038244;28;20206;-83
2023/08/12 00:33:33;;;;;;;17.17;14.73;;;22.30;99.90;;;;;;5031826;28;20199;-85
2023/08/12 00:36:00;;;;;;;17.90;15.18;;;22.30;99.90;;;;;;5063449;28;20214;-83
2023/08/12 00:38:29;;;;;;;17.48;15.68;;;22.30;99.90;;;;;;5034780;28;20215;-83
2023/08/12 00:40:58;;;;;;;16.88;15.10;;;22.30;99.90;;;;;;5032438;28;20207;-83
2023/08/12 00:43:25;;;;;;;17.77;14.52;;;22.20;99.90;;;;;;5037852;28;20219;-83
2023/08/12 00:45:53;;;;;;;16.77;14.00;;;22.10;99.90;;;;;;5036689;28;20215;-83
2023/08/12 00:48:21;;;;;;;15.35;13.75;;;22.20;99.90;;;;;;5041554;28;20550;-83
2023/08/12 00:50:50;;;;;;;16.92;13.35;;;22.20;99.90;;;;;;5031365;28;20199;-85
2023/08/12 00:53:18;;;;;;;14.35;12.85;;;22.30;99.90;;;;;;5035964;28;20227;-83
2023/08/12 00:55:46;;;;;;;16.30;14.70;;;22.30;99.90;;;;;;5034013;28;20554;-83
2023/08/12 00:58:14;;;;;;;16.67;14.35;;;22.30;99.90;;;;;;5040475;28;20561;-83
2023/08/12 01:00:42;;;;;;;17.88;15.98;;;22.20;99.90;;;;;;5035479;28;20199;-84
2023/08/12 01:03:11;;;;;;;17.15;15.40;;;21.90;99.90;;;;;;5032685;28;20238;-83
2023/08/12 01:05:39;;;;;;;18.10;15.43;;;21.80;99.90;;;;;;5037134;28;20207;-83
2023/08/12 01:08:08;;;;;;;22.30;18.20;;;21.90;99.90;;;;;;5037488;28;20195;-83
2023/08/12 01:10:39;;;;;;;19.27;16.65;;;21.90;99.90;;;;;;5049750;28;20221;-83
2023/08/12 01:13:18;;;;;;;18.85;16.95;;;21.90;99.90;;;;;;5017608;28;20223;-83
2023/08/12 01:15:46;;;;;;;21.55;19.17;;;21.90;99.90;;;;;;5034455;28;20202;-83
2023/08/12 01:18:15;;;;;;;22.55;18.02;;;21.80;99.90;;;;;;5035956;28;20211;-83
2023/08/12 01:20:43;;;;;;;22.77;19.67;;;21.90;99.90;;;;;;5034829;28;20203;-85
2023/08/12 01:23:14;;;;;;;18.98;16.98;;;21.90;99.90;;;;;;5028463;28;20221;-83
2023/08/12 01:25:42;;;;;;;18.98;16.98;;;22.00;99.90;;;;;;5037490;28;20192;-84
2023/08/12 01:28:09;;;;;;;18.55;16.42;;;22.10;99.90;;;;;;5008885;28;20196;-83
2023/08/12 01:30:44;;;;;;;20.58;16.52;;;22.20;99.90;;;;;;5016065;28;20202;-83
2023/08/12 01:33:19;;;;;;;19.92;17.30;;;22.20;99.90;;;;;;5040919;28;20222;-83
2023/08/12 01:35:54;;;;;;;20.15;18.05;;;22.20;99.90;;;;;;5030486;28;20206;-83
2023/08/12 01:38:25;;;;;;;19.27;16.38;;;22.10;99.90;;;;;;5034877;28;20222;-85
2023/08/12 01:40:54;;;;;;;18.55;16.58;;;22.10;99.90;;;;;;5033587;28;20195;-83
2023/08/12 01:43:23;;;;;;;19.55;16.77;;;22.00;99.90;;;;;;5029499;28;20226;-82
2023/08/12 01:45:50;;;;;;;19.60;16.20;;;22.00;99.90;;;;;;5033730;28;20218;-83
2023/08/12 01:48:20;;;;;;;19.15;15.52;;;22.00;99.90;;;;;;5039971;28;20199;-82
2023/08/12 01:50:47;;;;;;;18.70;15.45;;;22.10;99.90;;;;;;5049965;28;20204;-83
2023/08/12 01:53:15;;;;;;;16.63;14.35;;;22.10;99.90;;;;;;5036004;28;20226;-83
2023/08/12 01:55:46;;;;;;;16.40;14.02;;;22.20;99.90;;;;;;5035741;28;20199;-83
2023/08/12 01:58:13;;;;;;;15.60;13.85;;;22.10;99.90;;;;;;5040459;28;20211;-85
2023/08/12 02:00:41;;;;;;;15.40;13.80;;;22.10;99.90;;;;;;5041032;28;20206;-84
2023/08/12 02:03:08;;;;;;;15.13;13.55;;;22.10;99.90;;;;;;5013671;28;20875;-82
2023/08/12 02:05:37;;;;;;;16.08;13.32;;;22.10;99.90;;;;;;5029584;28;20192;-83
2023/08/12 02:08:05;;;;;;;15.50;13.75;;;22.10;99.90;;;;;;5035285;28;20207;-83
2023/08/12 02:10:36;;;;;;;17.10;14.13;;;22.10;99.90;;;;;;5033181;28;20195;-83
2023/08/12 02:13:05;;;;;;;16.98;15.18;;;22.00;99.90;;;;;;5034114;28;20222;-83
2023/08/12 02:15:33;;;;;;;16.67;15.02;;;21.90;99.90;;;;;;5039384;28;20222;-83
2023/08/12 02:18:00;;;;;;;17.70;15.38;;;21.80;99.90;;;;;;5033810;28;20215;-85
2023/08/12 02:20:28;;;;;;;15.43;13.82;;;21.80;99.90;;;;;;5036306;28;20206;-82
2023/08/12 02:22:55;;;;;;;18.20;14.00;;;21.80;99.90;;;;;;5033777;28;20220;-83
2023/08/12 02:25:23;;;;;;;14.73;13.25;;;21.90;99.90;;;;;;5030182;28;20203;-85
2023/08/12 02:27:50;;;;;;;16.38;14.68;;;22.00;99.90;;;;;;5028276;28;20580;-83
2023/08/12 02:30:19;;;;;;;15.07;13.30;;;21.90;99.90;;;;;;5052128;28;20206;-83
2023/08/12 02:32:47;;;;;;;17.75;13.43;;;22.00;99.90;;;;;;5031187;28;20572;-83
2023/08/12 02:35:14;;;;;;;14.13;12.52;;;22.10;99.90;;;;;;5028553;28;20684;-82
2023/08/12 02:37:42;;;;;;;13.43;11.90;;;22.10;99.90;;;;;;5035162;28;20202;-82
2023/08/12 02:40:11;;;;;;;15.45;13.05;;;22.10;99.90;;;;;;5030306;28;20551;-83
2023/08/12 02:42:39;;;;;;;16.42;14.70;;;22.00;99.90;;;;;;5028912;28;20227;-83
2023/08/12 02:45:07;;;;;;;17.67;14.45;;;21.70;99.90;;;;;;5048806;28;20222;-82
2023/08/12 02:47:36;;;;;;;18.67;15.02;;;21.50;99.90;;;;;;5028398;28;20200;-83
2023/08/12 02:50:03;;;;;;;19.77;17.23;;;21.50;99.90;;;;;;5035023;28;20195;-82
2023/08/12 02:52:31;;;;;;;18.17;16.23;;;21.40;99.90;;;;;;5025632;28;21608;-82
2023/08/12 02:54:59;;;;;;;22.20;18.15;;;21.30;99.90;;;;;;5026417;28;20214;-82
2023/08/12 02:57:27;;;;;;;19.23;17.20;;;21.30;99.90;;;;;;5029864;28;20191;-83
2023/08/12 02:59:54;;;;;;;21.13;18.27;;;21.40;99.90;;;;;;5026712;28;20221;-83
2023/08/12 03:02:22;;;;;;;21.73;19.38;;;21.50;99.90;;;;;;5029572;28;20230;-83
2023/08/12 03:04:53;;;;;;;24.70;19.65;;;21.60;99.90;;;;;;5027083;28;20562;-84
2023/08/12 03:07:21;;;;;;;22.17;19.35;;;21.50;99.90;;;;;;5032453;28;20206;-83
2023/08/12 03:09:49;;;;;;;23.00;18.83;;;21.50;99.90;;;;;;5030753;28;20199;-82
2023/08/12 03:12:16;;;;;;;22.25;17.85;;;21.40;99.90;;;;;;5003337;28;20219;-83
2023/08/12 03:14:44;;;;;;;20.73;18.40;;;21.40;99.90;;;;;;5029849;28;20214;-85
2023/08/12 03:17:12;;;;;;;22.73;18.88;;;21.30;99.90;;;;;;5041267;28;20206;-83
2023/08/12 03:19:39;;;;;;;22.42;18.02;;;21.40;99.90;;;;;;5037401;28;20585;-82
2023/08/12 03:22:08;;;;;;;20.40;18.17;;;21.30;99.90;;;;;;5029488;28;20210;-83
2023/08/12 03:24:38;;;;;;;21.58;18.38;;;21.20;99.90;;;;;;5026170;28;20194;-84
2023/08/12 03:27:06;;;;;;;21.10;18.45;;;21.20;99.90;;;;;;5025618;28;20199;-83
2023/08/12 03:29:34;;;;;;;19.77;17.15;;;21.20;99.90;;;;;;5029155;28;20199;-82
2023/08/12 03:32:02;;;;;;;24.45;19.13;;;21.20;99.90;;;;;;5066690;28;20219;-82
2023/08/12 03:34:30;;;;;;;24.70;18.45;;;21.30;99.90;;;;;;5046096;28;20214;-82
2023/08/12 03:36:58;;;;;;;23.95;18.48;;;21.30;99.90;;;;;;5038872;28;20203;-82
2023/08/12 03:39:27;;;;;;;22.75;19.13;;;21.40;99.90;;;;;;5034681;28;20214;-86
2023/08/12 03:41:56;;;;;;;21.60;18.05;;;21.50;99.90;;;;;;5034156;28;20233;-83
2023/08/12 03:44:23;;;;;;;22.60;18.20;;;21.60;99.90;;;;;;5071654;28;20201;-83
2023/08/12 03:46:56;;;;;;;20.73;18.52;;;21.60;99.90;;;;;;5038839;28;20196;-82
2023/08/12 03:49:24;;;;;;;23.30;19.73;;;21.40;99.90;;;;;;5039882;28;20262;-83
2023/08/12 03:51:52;;;;;;;22.33;19.75;;;21.30;99.90;;;;;;5032176;28;20223;-83
2023/08/12 03:54:19;;;;;;;22.92;19.10;;;21.30;99.90;;;;;;5029928;28;20203;-83
2023/08/12 03:56:48;;;;;;;23.75;19.70;;;21.30;99.90;;;;;;5028283;28;20676;-82
2023/08/12 03:59:16;;;;;;;23.42;19.55;;;21.30;99.90;;;;;;5029645;28;20214;-87
2023/08/12 04:01:43;;;;;;;21.33;19.13;;;21.20;99.90;;;;;;5046152;28;20700;-83
2023/08/12 04:04:11;;;;;;;23.55;19.77;;;21.30;99.90;;;;;;5008354;28;20199;-82
2023/08/12 04:06:38;;;;;;;25.58;20.20;;;21.30;99.90;;;;;;5032367;28;20679;-82
2023/08/12 04:09:06;;;;;;;22.50;19.50;;;21.30;99.90;;;;;;5023941;28;20199;-83
2023/08/12 04:11:34;;;;;;;22.90;18.77;;;21.30;99.90;;;;;;5029278;28;20231;-84
2023/08/12 04:14:02;;;;;;;23.95;19.00;;;21.30;99.90;;;;;;5031838;28;20195;-82
2023/08/12 04:16:30;;;;;;;21.58;18.08;;;21.30;99.90;;;;;;5037475;28;20199;-82
2023/08/12 04:18:58;;;;;;;21.95;17.85;;;21.30;99.90;;;;;;5029426;28;20218;-82
2023/08/12 04:21:25;;;;;;;19.17;17.15;;;21.30;99.90;;;;;;5034776;28;20195;-84
2023/08/12 04:23:53;;;;;;;22.45;17.27;;;21.30;99.90;;;;;;5031469;28;20206;-82
2023/08/12 04:26:20;;;;;;;19.08;15.77;;;21.50;99.90;;;;;;5032430;28;20206;-82
2023/08/12 04:28:48;;;;;;;16.92;15.07;;;21.40;99.90;;;;;;5027406;28;20207;-82
2023/08/12 04:31:17;;;;;;;17.02;15.02;;;21.50;99.90;;;;;;5029410;28;20218;-82
2023/08/12 04:33:45;;;;;;;17.00;14.75;;;21.50;99.90;;;;;;5024009;28;20203;-83
2023/08/12 04:36:13;;;;;;;18.73;16.90;;;21.50;99.90;;;;;;5034747;28;20198;-83
2023/08/12 04:38:41;;;;;;;21.85;17.42;;;21.60;99.90;;;;;;5039785;28;20579;-82
2023/08/12 04:41:10;;;;;;;17.85;15.20;;;21.50;99.90;;;;;;5022944;28;20194;-82
2023/08/12 04:43:38;;;;;;;16.08;14.45;;;21.40;99.90;;;;;;5043110;28;20195;-82
2023/08/12 04:46:06;;;;;;;16.17;14.48;;;21.40;99.90;;;;;;5030724;28;20198;-82
2023/08/12 04:48:36;;;;;;;18.17;15.07;;;21.30;99.90;;;;;;5046709;28;20199;-82
2023/08/12 04:51:05;;;;;;;18.52;15.10;;;21.30;99.90;;;;;;5050278;28;20186;-82
2023/08/12 04:53:35;;;;;;;16.42;13.85;;;21.30;99.90;;;;;;5018746;28;20210;-83
2023/08/12 04:56:03;;;;;;;17.70;15.80;;;21.50;99.90;;;;;;5037573;28;20203;-84
2023/08/12 04:58:47;;;;;;;;;;;;;;;;;;;;;
2023/08/12 05:01:15;;;;;;;17.05;15.07;;;21.30;99.90;;;;;;5031262;28;20230;-83
2023/08/12 05:03:44;;;;;;;15.77;14.25;;;21.20;99.90;;;;;;5034491;28;20199;-88
2023/08/12 05:06:14;;;;;;;14.95;13.55;;;21.10;99.90;;;;;;5030704;28;20199;-85
2023/08/12 05:08:46;;;;;;;15.75;13.95;;;21.10;99.90;;;;;;5031719;28;20210;-83
2023/08/12 05:11:14;;;;;;;17.02;14.52;;;21.10;99.90;;;;;;5031122;28;20187;-83
2023/08/12 05:13:41;;;;;;;15.95;13.73;;;21.10;99.90;;;;;;5030639;28;20210;-84
2023/08/12 05:16:21;;;;;;;13.95;12.55;;;21.00;99.90;;;;;;5042479;28;20203;-83
2023/08/12 05:18:52;;;;;;;15.75;14.18;;;21.20;99.90;;;;;;5039306;28;20210;-82
2023/08/12 05:21:20;;;;;;;15.85;14.20;;;21.40;99.90;;;;;;5037885;28;20219;-86
2023/08/12 05:23:48;;;;;;;16.40;14.65;;;21.40;99.90;;;;;;5051291;28;20209;-88
2023/08/12 05:26:15;;;;;;;15.45;13.85;;;21.40;99.90;;;;;;5048283;28;20569;-83
2023/08/12 05:28:43;;;;;;;14.32;12.80;;;21.40;99.90;;;;;;5030917;28;20203;-87
2023/08/12 05:31:12;;;;;;;14.30;12.73;;;21.40;99.90;;;;;;5047228;28;20564;-83
2023/08/12 05:33:40;;;;;;;13.95;12.43;;;21.40;99.90;;;;;;5033718;28;20199;-85
2023/08/12 05:36:09;;;;;;;15.15;12.23;;;21.50;99.90;;;;;;5033150;28;20198;-85
2023/08/12 05:38:37;;;;;;;14.20;12.70;;;21.50;99.90;;;;;;5045424;28;20210;-80
2023/08/12 05:41:07;;;;;;;13.35;12.05;;;21.50;99.90;;;;;;5052000;28;20251;-82
2023/08/12 05:43:35;;;;;;;15.50;12.52;;;21.70;99.90;;;;;;5020461;28;20200;-81
2023/08/12 05:46:03;;;;;;;14.52;13.02;;;21.60;99.90;;;;;;5014921;28;20203;-81
2023/08/12 05:48:31;;;;;;;13.23;12.02;;;21.70;99.90;;;;;;5030974;28;20199;-80
2023/08/12 05:50:58;;;;;;;14.73;11.88;;;21.70;99.90;;;;;;5071653;28;20216;-81
2023/08/12 05:53:27;;;;;;;14.07;12.57;;;21.70;99.90;;;;;;5045906;28;20223;-83
2023/08/12 05:55:57;;;;;;;13.80;11.70;;;21.60;99.90;;;;;;5032699;28;20203;-82
2023/08/12 05:58:26;;;;;;;12.95;11.65;;;21.70;99.90;;;;;;5037598;28;20785;-81
2023/08/12 06:00:59;;;;;;;12.55;10.57;;;21.70;99.90;;;;;;5037018;28;20226;-81
2023/08/12 06:03:29;;;;;;;11.88;10.70;;;21.80;99.90;;;;;;5035340;28;20673;-80
2023/08/12 06:05:57;;;;;;;12.90;11.23;;;21.80;99.90;;;;;;5041065;28;20672;-83
2023/08/12 06:08:24;;;;;;;14.68;10.55;;;21.80;99.90;;;;;;5038745;28;20198;-81
2023/08/12 06:10:53;;;;;;;14.27;10.45;;;21.70;99.90;;;;;;5039332;28;20203;-81
2023/08/12 06:13:21;;;;;;;11.00;9.90;;;21.70;99.90;;;;;;5054252;28;20219;-81
2023/08/12 06:15:48;;;;;;;12.13;10.77;;;21.80;99.90;;;;;;5041148;28;20209;-81
2023/08/12 06:18:16;;;;;;;13.50;10.95;;;21.70;99.90;;;;;;5040485;28;20222;-82
2023/08/12 06:20:43;;;;;;;11.25;9.50;;;21.70;99.90;;;;;;5066208;28;20233;-81
2023/08/12 06:23:11;;;;;;;10.40;9.40;;;21.70;99.90;;;;;;5017590;28;20232;-80
2023/08/12 06:25:38;;;;;;;10.98;9.73;;;21.60;99.90;;;;;;5053888;28;20199;-81
2023/08/12 06:28:09;;;;;;;11.73;9.30;;;21.60;99.90;;;;;;5034802;28;20203;-81
2023/08/12 06:30:36;;;;;;;11.48;8.77;;;21.60;99.90;;;;;;5029740;28;20210;-81
2023/08/12 06:33:04;;;;;;;9.68;8.40;;;21.60;99.90;;;;;;5030793;28;20230;-80
2023/08/12 06:35:32;;;;;;;9.43;8.48;;;21.60;99.90;;;;;;5054648;28;20195;-81
2023/08/12 06:38:00;;;;;;;9.60;8.55;;;21.50;99.90;;;;;;5040854;28;20206;-81
2023/08/12 06:40:27;;;;;;;9.38;8.43;;;21.60;99.90;;;;;;5034124;28;20215;-81
2023/08/12 06:42:55;;;;;;;8.75;7.95;;;21.60;99.90;;;;;;5018897;28;20218;-81
2023/08/12 06:45:24;;;;;;;11.10;7.93;;;21.50;99.90;;;;;;5059080;28;20202;-81
2023/08/12 06:47:51;;;;;;;10.13;8.65;;;21.60;99.90;;;;;;5038503;28;20205;-81
2023/08/12 06:50:18;;;;;;;9.07;7.80;;;21.60;99.90;;;;;;5046296;28;20203;-81
2023/08/12 06:52:46;;;;;;;9.18;8.23;;;21.60;99.90;;;;;;5028825;28;20242;-81
2023/08/12 06:55:14;;;;;;;9.02;7.00;;;21.60;99.90;;;;;;5030823;28;20203;-81
2023/08/12 06:57:41;;;;;;;8.00;6.50;;;21.60;99.90;;;;;;5030687;28;20226;-81
2023/08/12 07:00:09;;;;;;;8.18;6.38;;;21.50;99.90;;;;;;5032266;28;20688;-81
2023/08/12 07:02:40;;;;;;;6.63;5.68;;;21.60;99.90;;;;;;5047932;28;20222;-81
2023/08/12 07:05:07;;;;;;;7.07;5.57;;;21.50;99.90;;;;;;5024900;28;20575;-81
2023/08/12 07:07:35;;;;;;;6.70;5.55;;;21.50;99.90;;;;;;5053657;28;20203;-81
2023/08/12 07:10:03;;;;;;;6.03;5.47;;;21.50;99.90;;;;;;5051502;28;20703;-81
2023/08/12 07:12:30;;;;;;;5.50;5.00;;;21.50;99.90;;;;;;5019022;28;20235;-80
2023/08/12 07:14:58;;;;;;;7.45;5.85;;;21.40;99.90;;;;;;5033006;28;20202;-80
2023/08/12 07:17:27;;;;;;;6.75;5.38;;;21.30;99.90;;;;;;5035325;28;20207;-81
2023/08/12 07:19:59;;;;;;;6.60;5.30;;;21.30;99.90;;;;;;5042357;28;20204;-82
2023/08/12 07:22:27;;;;;;;6.43;4.93;;;21.20;99.90;;;;;;5034351;28;20227;-81
2023/08/12 07:25:00;;;;;;;6.47;5.57;;;21.30;99.90;;;;;;5034748;28;20594;-80
2023/08/12 07:27:28;;;;;;;6.13;5.50;;;21.20;99.90;;;;;;5035783;28;20212;-80
2023/08/12 07:29:56;;;;;;;6.32;5.43;;;21.20;99.90;;;;;;5016894;28;20654;-80
2023/08/12 07:32:26;;;;;;;6.47;5.30;;;21.30;99.90;;;;;;5036646;28;20217;-81
2023/08/12 07:34:56;;;;;;;5.93;5.32;;;21.30;99.90;;;;;;5053473;28;20202;-81
2023/08/12 07:37:24;;;;;;;7.07;5.20;;;21.30;99.90;;;;;;5041135;28;20199;-81
2023/08/12 07:39:52;;;;;;;6.43;5.50;;;21.30;99.90;;;;;;5035818;28;20198;-81
2023/08/12 07:42:20;;;;;;;5.93;5.30;;;21.40;99.90;;;;;;5028249;28;20249;-81
2023/08/12 07:44:48;;;;;;;4.70;4.30;;;21.50;99.90;;;;;;5032924;28;20562;-81
2023/08/12 07:47:18;;;;;;;4.80;4.40;;;21.40;99.90;;;;;;5031361;28;20229;-80
2023/08/12 07:49:46;;;;;;;5.07;4.53;;;21.40;99.90;;;;;;5044056;28;20202;-81
2023/08/12 07:52:13;;;;;;;5.00;4.40;;;21.40;99.90;;;;;;5033881;28;20233;-80
2023/08/12 07:54:44;;;;;;;5.32;4.82;;;21.40;99.90;;;;;;5026678;28;20211;-81
2023/08/12 07:57:12;;;;;;;5.10;4.50;;;21.40;99.90;;;;;;5041997;28;20215;-80
2023/08/12 07:59:39;;;;;;;5.60;4.53;;;21.40;99.90;;;;;;5029381;28;20206;-81
2023/08/12 08:02:07;;;;;;;4.63;4.22;;;21.40;99.90;;;;;;5053915;28;20222;-81
2023/08/12 08:04:35;;;;;;;4.32;3.92;;;21.30;99.90;;;;;;5037085;28;20207;-80
2023/08/12 08:07:02;;;;;;;4.85;4.30;;;21.40;99.90;;;;;;5029966;28;20253;-82
2023/08/12 08:09:30;;;;;;;5.65;4.97;;;21.50;99.90;;;;;;5033019;28;20203;-81
2023/08/12 08:11:58;;;;;;;4.80;4.07;;;21.60;99.90;;;;;;5033305;28;20681;-80
2023/08/12 08:14:26;;;;;;;8.07;4.40;;;21.70;99.90;;;;;;5033577;28;20571;-80
2023/08/12 08:17:00;;;;;;;4.25;3.92;;;21.70;99.90;;;;;;5033362;28;20214;-80
2023/08/12 08:19:28;;;;;;;4.25;3.85;;;21.80;99.90;;;;;;5036416;28;20202;-80
2023/08/12 08:21:55;;;;;;;3.83;3.42;;;21.80;99.90;;;;;;5035912;28;20226;-81
2023/08/12 08:24:23;;;;;;;4.65;3.58;;;21.80;99.90;;;;;;5053880;28;20191;-80
2023/08/12 08:26:50;;;;;;;6.30;3.30;;;21.80;99.90;;;;;;5018518;28;20199;-80
2023/08/12 08:29:19;;;;;;;5.10;4.20;;;21.80;99.90;;;;;;5050687;28;20206;-80
2023/08/12 08:31:47;;;;;;;5.10;3.95;;;21.80;99.90;;;;;;5021957;28;20238;-80
2023/08/12 08:34:14;;;;;;;4.88;4.07;;;21.70;99.90;;;;;;5026042;28;20203;-80
2023/08/12 08:36:42;;;;;;;5.75;4.32;;;21.70;99.90;;;;;;5042352;28;20211;-80
2023/08/12 08:39:09;;;;;;;4.82;4.43;;;21.70;99.90;;;;;;5070575;28;20199;-81
2023/08/12 08:41:40;;;;;;;5.13;4.72;;;21.70;99.90;;;;;;5039921;28;20234;-80
2023/08/12 08:44:09;;;;;;;5.30;4.80;;;21.70;99.90;;;;;;5040979;28;20187;-80
2023/08/12 08:46:38;;;;;;;6.93;4.85;;;21.70;99.90;;;;;;5022386;28;20206;-80
2023/08/12 08:49:06;;;;;;;5.75;5.25;;;21.60;99.90;;;;;;5035865;28;20563;-80
2023/08/12 08:51:34;;;;;;;6.50;5.90;;;21.60;99.90;;;;;;5034973;28;20210;-80
2023/08/12 08:54:04;;;;;;;6.80;6.10;;;21.70;99.90;;;;;;5037749;28;20215;-80
2023/08/12 08:56:32;;;;;;;12.10;5.95;;;21.70;99.90;;;;;;5054968;28;20203;-80
2023/08/12 08:59:00;;;;;;;7.50;6.30;;;21.80;99.90;;;;;;5039695;28;20179;-81
2023/08/12 09:01:29;;;;;;;7.10;6.45;;;21.70;99.90;;;;;;5020169;28;20222;-82
2023/08/12 09:04:03;;;;;;;6.80;6.20;;;21.70;99.90;;;;;;5035988;28;20672;-80
2023/08/12 09:06:31;;;;;;;6.32;5.78;;;21.80;99.90;;;;;;5027848;28;20203;-82
2023/08/12 09:09:01;;;;;;;6.45;5.82;;;21.70;99.90;;;;;;5029859;28;20563;-81
2023/08/12 09:11:33;;;;;;;7.20;6.53;;;21.70;99.90;;;;;;5011177;28;20207;-83
2023/08/12 09:14:01;;;;;;;7.78;7.07;;;21.80;99.90;;;;;;5054837;28;20200;-81
2023/08/12 09:16:28;;;;;;;6.85;6.35;;;21.80;99.90;;;;;;5044441;28;20224;-85
2023/08/12 09:18:57;;;;;;;7.82;6.53;;;21.80;99.90;;;;;;5057667;28;20207;-85
2023/08/12 09:21:28;;;;;;;7.93;7.22;;;21.80;99.90;;;;;;5043213;28;20220;-84
2023/08/12 09:23:56;;;;;;;7.40;6.75;;;21.90;99.90;;;;;;5047346;28;20198;-82
2023/08/12 09:26:24;;;;;;;7.45;6.80;;;21.80;99.90;;;;;;5040530;28;20218;-83
2023/08/12 09:28:52;;;;;;;7.15;6.05;;;21.80;99.90;;;;;;5033208;28;20202;-82
2023/08/12 09:31:25;;;;;;;7.00;6.47;;;21.80;99.90;;;;;;5038629;28;20218;-83
2023/08/12 09:33:53;;;;;;;7.15;6.43;;;21.70;99.90;;;;;;5036641;28;20217;-81
2023/08/12 09:36:22;;;;;;;6.63;5.82;;;21.70;99.90;;;;;;5054077;28;20206;-85
2023/08/12 09:38:52;;;;;;;7.13;5.60;;;21.80;99.90;;;;;;5045586;28;20230;-81
2023/08/12 09:41:19;;;;;;;6.45;5.95;;;21.80;99.90;;;;;;5048450;28;20215;-83
2023/08/12 09:43:47;;;;;;;5.97;5.38;;;21.90;99.90;;;;;;5042352;28;20213;-83
2023/08/12 09:46:15;;;;;;;5.53;5.03;;;22.00;99.90;;;;;;5014688;28;20219;-83
2023/08/12 09:48:42;;;;;;;5.90;5.40;;;22.00;99.90;;;;;;5039500;28;20210;-86
2023/08/12 09:51:10;;;;;;;4.95;4.55;;;21.90;99.90;;;;;;5039022;28;20198;-82
2023/08/12 09:53:38;;;;;;;5.60;4.78;;;21.90;99.90;;;;;;5019186;28;20219;-82
2023/08/12 09:56:08;;;;;;;4.45;4.13;;;21.90;99.90;;;;;;5035817;28;20203;-82
2023/08/12 09:58:37;;;;;;;4.68;4.28;;;21.90;99.90;;;;;;5009078;28;20210;-82
2023/08/12 10:01:07;;;;;;;3.55;3.25;;;21.90;99.90;;;;;;5034217;28;20668;-82
2023/08/12 10:03:35;;;;;;;4.43;4.03;;;21.80;99.90;;;;;;5059230;28;20227;-85
2023/08/12 10:06:04;;;;;;;4.75;4.35;;;21.80;99.90;;;;;;5048708;28;20653;-82
2023/08/12 10:08:33;;;;;;;4.20;3.60;;;21.90;99.90;;;;;;5037561;28;20207;-82
2023/08/12 10:11:01;;;;;;;4.38;3.63;;;21.90;99.90;;;;;;5042950;28;20198;-81
2023/08/12 10:13:30;;;;;;;4.25;3.85;;;22.00;99.90;;;;;;5047974;28;20220;-82
2023/08/12 10:15:57;;;;;;;4.07;3.50;;;22.00;99.90;;;;;;5033878;28;20218;-81
2023/08/12 10:18:26;;;;;;;4.35;3.53;;;21.90;99.90;;;;;;5031164;28;20204;-82
2023/08/12 10:20:55;;;;;;;3.90;3.40;;;22.00;99.90;;;;;;5046511;28;20210;-81
2023/08/12 10:23:23;;;;;;;3.10;2.80;;;22.10;99.90;;;;;;5037368;28;20227;-82
2023/08/12 10:25:54;;;;;;;3.42;3.13;;;22.10;99.90;;;;;;5020464;28;20206;-82
2023/08/12 10:28:23;;;;;;;3.20;3.00;;;22.10;99.90;;;;;;5035397;28;20668;-82
2023/08/12 10:30:53;;;;;;;2.53;2.33;;;22.20;99.90;;;;;;5033001;28;20218;-82
2023/08/12 10:33:20;;;;;;;2.95;2.40;;;22.20;99.90;;;;;;5036022;28;20219;-84
2023/08/12 10:35:49;;;;;;;2.47;2.15;;;22.30;99.90;;;;;;5031776;28;20210;-82
2023/08/12 10:38:19;;;;;;;2.63;1.75;;;22.30;99.90;;;;;;5007796;28;20207;-84
2023/08/12 10:40:47;;;;;;;2.65;2.10;;;22.10;99.90;;;;;;5044103;28;20203;-82
2023/08/12 10:43:15;;;;;;;2.38;2.22;;;22.10;99.90;;;;;;5010803;28;20229;-82
2023/08/12 10:45:45;;;;;;;2.38;2.17;;;22.20;99.90;;;;;;5039542;28;20216;-82
2023/08/12 10:48:19;;;;;;;3.40;2.22;;;22.10;99.90;;;;;;5043481;28;20207;-83
2023/08/12 10:50:54;;;;;;;2.95;2.72;;;22.10;99.90;;;;;;5033390;28;20291;-83
2023/08/12 10:53:29;;;;;;;4.15;2.60;;;22.10;99.90;;;;;;5030934;28;20226;-83
2023/08/12 10:55:58;;;;;;;2.85;2.55;;;22.00;99.90;;;;;;5071031;28;20210;-82
2023/08/12 10:58:28;;;;;;;3.10;2.80;;;22.00;99.90;;;;;;5026264;28;20222;-82
2023/08/12 11:00:57;;;;;;;3.00;2.80;;;22.00;99.90;;;;;;5031960;28;20203;-82
2023/08/12 11:03:26;;;;;;;2.78;2.40;;;21.80;99.90;;;;;;5032533;28;20764;-82
2023/08/12 11:05:56;;;;;;;2.58;2.38;;;21.70;99.90;;;;;;5032553;28;20210;-83
2023/08/12 11:08:29;;;;;;;2.83;2.63;;;21.70;99.90;;;;;;5034225;28;20572;-82
2023/08/12 11:10:58;;;;;;;2.20;2.10;;;21.70;99.90;;;;;;5033152;28;20285;-82
2023/08/12 11:13:28;;;;;;;2.85;2.10;;;21.70;99.90;;;;;;5038459;28;20219;-81
2023/08/12 11:16:08;;;;;;;2.67;2.25;;;21.80;99.90;;;;;;5034344;28;20203;-82
2023/08/12 11:18:37;;;;;;;2.38;1.95;;;21.90;99.90;;;;;;5031858;28;20195;-82
2023/08/12 11:21:06;;;;;;;3.15;2.38;;;22.00;99.90;;;;;;5034683;28;20202;-81
2023/08/12 11:23:34;;;;;;;3.10;2.10;;;22.00;99.90;;;;;;5027780;28;20234;-81
2023/08/12 11:26:02;;;;;;;2.60;1.88;;;22.10;99.90;;;;;;5015903;28;20199;-81
2023/08/12 11:28:29;;;;;;;2.60;1.50;;;22.10;99.90;;;;;;5022837;28;20206;-82
2023/08/12 11:30:57;;;;;;;1.73;1.63;;;22.20;99.90;;;;;;5053960;28;20203;-82
2023/08/12 11:33:25;;;;;;;1.50;1.40;;;22.10;99.90;;;;;;5038240;28;20219;-81
2023/08/12 11:35:55;;;;;;;1.60;1.48;;;22.00;99.90;;;;;;5037809;28;20214;-82
2023/08/12 11:38:23;;;;;;;1.30;1.10;;;21.90;99.90;;;;;;5028578;28;20202;-81
2023/08/12 11:40:51;;;;;;;2.33;1.48;;;21.90;99.90;;;;;;5037060;28;20212;-81
2023/08/12 11:43:22;;;;;;;1.55;1.40;;;22.00;99.90;;;;;;5023905;28;20242;-81
2023/08/12 11:45:49;;;;;;;1.30;1.10;;;22.00;99.90;;;;;;5038072;28;20206;-81
2023/08/12 11:48:17;;;;;;;1.38;1.23;;;22.10;99.90;;;;;;5028819;28;20210;-81
2023/08/12 11:50:44;;;;;;;1.38;1.27;;;22.10;99.90;;;;;;5056901;28;20217;-82
2023/08/12 11:53:14;;;;;;;1.50;1.40;;;22.10;99.90;;;;;;5036772;28;20221;-81
2023/08/12 11:55:41;;;;;;;1.70;1.42;;;22.10;99.90;;;;;;5038016;28;20195;-82
2023/08/12 11:58:09;;;;;;;1.30;1.20;;;22.20;99.90;;;;;;5018374;28;20203;-81
2023/08/12 12:00:36;;;;;;;1.30;1.20;;;22.20;99.90;;;;;;5050941;28;20199;-81
2023/08/12 12:03:06;;;;;;;1.35;1.00;;;22.20;99.90;;;;;;5049164;28;20227;-81
2023/08/12 12:05:34;;;;;;;1.20;1.10;;;22.30;99.90;;;;;;5053964;28;20207;-81
2023/08/12 12:08:02;;;;;;;1.23;1.13;;;22.40;99.90;;;;;;5044338;28;20203;-81
2023/08/12 12:10:32;;;;;;;1.10;1.02;;;22.40;99.90;;;;;;5025896;28;20198;-82
2023/08/12 12:13:01;;;;;;;1.42;0.90;;;22.40;99.90;;;;;;5027225;28;20231;-82
2023/08/12 12:15:28;;;;;;;1.75;0.90;;;22.50;99.90;;;;;;5024229;28;20207;-82
2023/08/12 12:17:56;;;;;;;1.05;0.95;;;22.50;99.90;;;;;;5028231;28;20198;-82
2023/08/12 12:20:25;;;;;;;1.27;0.90;;;22.40;99.90;;;;;;5047140;28;20595;-82
2023/08/12 12:22:52;;;;;;;1.45;1.10;;;22.50;99.90;;;;;;5023974;28;20222;-82
2023/08/12 12:25:20;;;;;;;1.30;0.98;;;22.50;99.90;;;;;;5034265;28;20202;-82
2023/08/12 12:27:49;;;;;;;1.25;0.80;;;22.50;99.90;;;;;;5051795;28;20213;-81
2023/08/12 12:30:19;;;;;;;1.13;1.08;;;22.40;99.90;;;;;;5019743;28;20202;-82
2023/08/12 12:32:46;;;;;;;1.75;1.00;;;22.50;99.90;;;;;;5025089;28;20227;-81
2023/08/12 12:35:15;;;;;;;1.88;1.30;;;22.50;99.90;;;;;;5062443;28;20210;-81
2023/08/12 12:37:43;;;;;;;1.50;1.40;;;22.50;99.90;;;;;;5039865;28;20203;-81
2023/08/12 12:40:12;;;;;;;1.30;1.20;;;22.50;99.90;;;;;;5035275;28;20211;-81
2023/08/12 12:42:39;;;;;;;2.20;1.50;;;22.40;99.90;;;;;;5033455;28;20225;-82
2023/08/12 12:45:10;;;;;;;1.88;1.75;;;22.40;99.90;;;;;;5039331;28;20219;-82